sensor_id;sensor_type;location;lat;lon;timestamp;temperature;humidity
33580;DHT22;19909;43.644;-79.438;2023-09-08T00:02:08;24.00;74.70
33580;DHT22;19909;43.644;-79.438;2023-09-08T00:04:34;24.00;74.50
33580;DHT22;19909;43.644;-79.438;2023-09-08T00:07:00;24.00;74.60
33580;DHT22;19909;43.644;-79.438;2023-09-08T00:09:27;24.10;74.20
33580;DHT22;19909;43.644;-79.438;2023-09-08T00:11:53;24.00;74.00
33580;DHT22;19909;43.644;-79.438;2023-09-08T00:14:22;24.00;74.60
33580;DHT22;19909;43.644;-79.438;2023-09-08T00:16:48;24.00;74.50
33580;DHT22;19909;43.644;-79.438;2023-09-08T00:19:14;24.00;74.30
33580;DHT22;19909;43.644;-79.438;2023-09-08T00:21:40;24.00;74.50
33580;DHT22;19909;43.644;-79.438;2023-09-08T00:24:08;24.00;74.20
33580;DHT22;19909;43.644;-79.438;2023-09-08T00:26:35;24.00;74.40
33580;DHT22;19909;43.644;-79.438;2023-09-08T00:29:01;24.00;74.40
33580;DHT22;19909;43.644;-79.438;2023-09-08T00:31:27;24.00;74.30
33580;DHT22;19909;43.644;-79.438;2023-09-08T00:33:53;24.00;74.30
33580;DHT22;19909;43.644;-79.438;2023-09-08T00:36:19;24.00;74.20
33580;DHT22;19909;43.644;-79.438;2023-09-08T00:38:45;24.00;74.20
33580;DHT22;19909;43.644;-79.438;2023-09-08T00:41:11;24.00;74.20
33580;DHT22;19909;43.644;-79.438;2023-09-08T00:43:37;23.90;74.10
33580;DHT22;19909;43.644;-79.438;2023-09-08T00:46:04;24.00;74.00
33580;DHT22;19909;43.644;-79.438;2023-09-08T00:48:30;24.00;73.80
33580;DHT22;19909;43.644;-79.438;2023-09-08T00:50:57;24.00;73.80
33580;DHT22;19909;43.644;-79.438;2023-09-08T00:53:23;23.90;73.60
33580;DHT22;19909;43.644;-79.438;2023-09-08T00:55:50;23.90;74.30
33580;DHT22;19909;43.644;-79.438;2023-09-08T00:58:17;23.90;73.60
33580;DHT22;19909;43.644;-79.438;2023-09-08T01:00:43;23.90;73.50
33580;DHT22;19909;43.644;-79.438;2023-09-08T01:03:11;23.90;73.50
33580;DHT22;19909;43.644;-79.438;2023-09-08T01:05:38;23.90;73.60
33580;DHT22;19909;43.644;-79.438;2023-09-08T01:08:05;23.90;73.50
33580;DHT22;19909;43.644;-79.438;2023-09-08T01:10:31;23.90;74.00
33580;DHT22;19909;43.644;-79.438;2023-09-08T01:12:58;23.90;73.20
33580;DHT22;19909;43.644;-79.438;2023-09-08T01:15:24;23.90;73.20
33580;DHT22;19909;43.644;-79.438;2023-09-08T01:17:50;23.90;73.00
33580;DHT22;19909;43.644;-79.438;2023-09-08T01:20:25;23.90;72.90
33580;DHT22;19909;43.644;-79.438;2023-09-08T01:26:10;23.90;72.70
33580;DHT22;19909;43.644;-79.438;2023-09-08T01:28:40;23.90;72.70
33580;DHT22;19909;43.644;-79.438;2023-09-08T01:31:07;23.90;72.60
33580;DHT22;19909;43.644;-79.438;2023-09-08T01:33:33;23.90;72.70
33580;DHT22;19909;43.644;-79.438;2023-09-08T01:36:00;23.90;72.60
33580;DHT22;19909;43.644;-79.438;2023-09-08T01:38:26;23.90;72.50
33580;DHT22;19909;43.644;-79.438;2023-09-08T01:40:54;23.90;72.30
33580;DHT22;19909;43.644;-79.438;2023-09-08T01:43:21;23.80;72.30
33580;DHT22;19909;43.644;-79.438;2023-09-08T01:45:47;23.80;72.20
33580;DHT22;19909;43.644;-79.438;2023-09-08T01:48:13;23.80;72.10
33580;DHT22;19909;43.644;-79.438;2023-09-08T01:50:39;23.80;72.10
33580;DHT22;19909;43.644;-79.438;2023-09-08T01:53:05;23.80;72.00
33580;DHT22;19909;43.644;-79.438;2023-09-08T01:55:31;23.80;71.80
33580;DHT22;19909;43.644;-79.438;2023-09-08T01:57:57;23.80;71.90
33580;DHT22;19909;43.644;-79.438;2023-09-08T02:00:24;23.80;71.70
33580;DHT22;19909;43.644;-79.438;2023-09-08T02:02:50;23.80;71.70
33580;DHT22;19909;43.644;-79.438;2023-09-08T02:05:16;23.80;71.70
33580;DHT22;19909;43.644;-79.438;2023-09-08T02:07:42;23.80;71.70
33580;DHT22;19909;43.644;-79.438;2023-09-08T02:10:08;23.80;71.60
33580;DHT22;19909;43.644;-79.438;2023-09-08T02:12:36;23.80;71.60
33580;DHT22;19909;43.644;-79.438;2023-09-08T02:15:03;23.80;71.80
33580;DHT22;19909;43.644;-79.438;2023-09-08T02:17:30;23.70;71.70
33580;DHT22;19909;43.644;-79.438;2023-09-08T02:19:56;23.80;71.60
33580;DHT22;19909;43.644;-79.438;2023-09-08T02:22:23;23.80;71.60
33580;DHT22;19909;43.644;-79.438;2023-09-08T02:24:49;23.80;71.50
33580;DHT22;19909;43.644;-79.438;2023-09-08T02:27:15;23.70;71.30
33580;DHT22;19909;43.644;-79.438;2023-09-08T02:29:41;23.70;71.30
33580;DHT22;19909;43.644;-79.438;2023-09-08T02:32:07;23.70;71.30
33580;DHT22;19909;43.644;-79.438;2023-09-08T02:34:36;23.70;71.30
33580;DHT22;19909;43.644;-79.438;2023-09-08T02:37:03;23.70;71.20
33580;DHT22;19909;43.644;-79.438;2023-09-08T02:39:30;23.70;71.20
33580;DHT22;19909;43.644;-79.438;2023-09-08T02:41:56;23.70;71.20
33580;DHT22;19909;43.644;-79.438;2023-09-08T02:44:22;23.70;71.20
33580;DHT22;19909;43.644;-79.438;2023-09-08T02:46:48;23.70;71.30
33580;DHT22;19909;43.644;-79.438;2023-09-08T02:49:14;23.70;71.10
33580;DHT22;19909;43.644;-79.438;2023-09-08T02:51:41;23.70;70.90
33580;DHT22;19909;43.644;-79.438;2023-09-08T02:54:07;23.70;71.00
33580;DHT22;19909;43.644;-79.438;2023-09-08T02:56:33;23.70;70.90
33580;DHT22;19909;43.644;-79.438;2023-09-08T02:58:59;23.70;70.90
33580;DHT22;19909;43.644;-79.438;2023-09-08T03:01:25;23.70;70.80
33580;DHT22;19909;43.644;-79.438;2023-09-08T03:03:51;23.70;70.90
33580;DHT22;19909;43.644;-79.438;2023-09-08T03:06:19;23.70;70.90
33580;DHT22;19909;43.644;-79.438;2023-09-08T03:08:46;23.60;70.70
33580;DHT22;19909;43.644;-79.438;2023-09-08T03:11:12;23.60;70.70
33580;DHT22;19909;43.644;-79.438;2023-09-08T03:13:39;23.60;70.80
33580;DHT22;19909;43.644;-79.438;2023-09-08T03:16:06;23.60;70.70
33580;DHT22;19909;43.644;-79.438;2023-09-08T03:18:35;23.60;70.60
33580;DHT22;19909;43.644;-79.438;2023-09-08T03:21:05;23.60;70.50
33580;DHT22;19909;43.644;-79.438;2023-09-08T03:23:39;23.60;70.60
33580;DHT22;19909;43.644;-79.438;2023-09-08T03:26:06;23.60;70.40
33580;DHT22;19909;43.644;-79.438;2023-09-08T03:28:34;23.60;70.40
33580;DHT22;19909;43.644;-79.438;2023-09-08T03:31:03;23.60;70.30
33580;DHT22;19909;43.644;-79.438;2023-09-08T03:33:29;23.50;70.30
33580;DHT22;19909;43.644;-79.438;2023-09-08T03:35:55;23.50;70.20
33580;DHT22;19909;43.644;-79.438;2023-09-08T03:38:22;23.60;71.00
33580;DHT22;19909;43.644;-79.438;2023-09-08T03:40:49;23.50;70.30
33580;DHT22;19909;43.644;-79.438;2023-09-08T03:43:15;23.50;70.30
33580;DHT22;19909;43.644;-79.438;2023-09-08T03:45:41;23.60;70.30
33580;DHT22;19909;43.644;-79.438;2023-09-08T03:48:07;23.50;70.00
33580;DHT22;19909;43.644;-79.438;2023-09-08T03:50:34;23.50;70.20
33580;DHT22;19909;43.644;-79.438;2023-09-08T03:53:00;23.50;70.00
33580;DHT22;19909;43.644;-79.438;2023-09-08T03:55:26;23.50;70.00
33580;DHT22;19909;43.644;-79.438;2023-09-08T03:57:52;23.50;70.00
33580;DHT22;19909;43.644;-79.438;2023-09-08T04:00:22;23.50;69.90
33580;DHT22;19909;43.644;-79.438;2023-09-08T04:02:49;23.50;69.90
33580;DHT22;19909;43.644;-79.438;2023-09-08T04:05:16;23.50;70.00
33580;DHT22;19909;43.644;-79.438;2023-09-08T04:07:45;23.50;69.90
33580;DHT22;19909;43.644;-79.438;2023-09-08T04:10:11;23.50;69.90
33580;DHT22;19909;43.644;-79.438;2023-09-08T04:12:39;23.40;70.00
33580;DHT22;19909;43.644;-79.438;2023-09-08T04:15:06;23.50;70.30
33580;DHT22;19909;43.644;-79.438;2023-09-08T04:17:32;23.50;70.10
33580;DHT22;19909;43.644;-79.438;2023-09-08T04:19:59;23.50;69.90
33580;DHT22;19909;43.644;-79.438;2023-09-08T04:22:25;23.50;69.70
33580;DHT22;19909;43.644;-79.438;2023-09-08T04:24:51;23.40;69.80
33580;DHT22;19909;43.644;-79.438;2023-09-08T04:27:19;23.50;69.90
33580;DHT22;19909;43.644;-79.438;2023-09-08T04:29:45;23.40;69.60
33580;DHT22;19909;43.644;-79.438;2023-09-08T04:32:11;23.40;69.60
33580;DHT22;19909;43.644;-79.438;2023-09-08T04:34:41;23.40;69.60
33580;DHT22;19909;43.644;-79.438;2023-09-08T04:37:08;23.40;69.60
33580;DHT22;19909;43.644;-79.438;2023-09-08T04:39:34;23.30;69.60
33580;DHT22;19909;43.644;-79.438;2023-09-08T04:42:01;23.30;69.70
33580;DHT22;19909;43.644;-79.438;2023-09-08T04:44:27;23.30;69.80
33580;DHT22;19909;43.644;-79.438;2023-09-08T04:46:54;23.40;69.60
33580;DHT22;19909;43.644;-79.438;2023-09-08T04:49:21;23.40;69.80
33580;DHT22;19909;43.644;-79.438;2023-09-08T04:51:47;23.40;69.70
33580;DHT22;19909;43.644;-79.438;2023-09-08T04:54:13;23.40;69.50
33580;DHT22;19909;43.644;-79.438;2023-09-08T04:56:39;23.40;69.60
33580;DHT22;19909;43.644;-79.438;2023-09-08T04:59:06;23.40;69.60
33580;DHT22;19909;43.644;-79.438;2023-09-08T05:01:32;23.30;69.40
33580;DHT22;19909;43.644;-79.438;2023-09-08T05:03:59;23.30;69.50
33580;DHT22;19909;43.644;-79.438;2023-09-08T05:06:25;23.30;69.30
33580;DHT22;19909;43.644;-79.438;2023-09-08T05:08:51;23.40;69.50
33580;DHT22;19909;43.644;-79.438;2023-09-08T05:11:17;23.30;69.30
33580;DHT22;19909;43.644;-79.438;2023-09-08T05:13:48;23.40;69.70
33580;DHT22;19909;43.644;-79.438;2023-09-08T05:16:14;23.30;69.50
33580;DHT22;19909;43.644;-79.438;2023-09-08T05:18:40;23.30;69.40
33580;DHT22;19909;43.644;-79.438;2023-09-08T05:21:07;23.30;69.30
33580;DHT22;19909;43.644;-79.438;2023-09-08T05:23:34;23.40;69.40
33580;DHT22;19909;43.644;-79.438;2023-09-08T05:26:00;23.40;69.50
33580;DHT22;19909;43.644;-79.438;2023-09-08T05:28:27;23.40;69.40
33580;DHT22;19909;43.644;-79.438;2023-09-08T05:30:53;23.30;69.10
33580;DHT22;19909;43.644;-79.438;2023-09-08T05:33:20;23.30;69.20
33580;DHT22;19909;43.644;-79.438;2023-09-08T05:35:46;23.30;69.00
33580;DHT22;19909;43.644;-79.438;2023-09-08T05:38:13;23.30;69.20
33580;DHT22;19909;43.644;-79.438;2023-09-08T05:40:40;23.20;69.00
33580;DHT22;19909;43.644;-79.438;2023-09-08T05:43:06;23.30;69.50
33580;DHT22;19909;43.644;-79.438;2023-09-08T05:45:32;23.20;69.50
33580;DHT22;19909;43.644;-79.438;2023-09-08T05:47:58;23.30;69.40
33580;DHT22;19909;43.644;-79.438;2023-09-08T05:50:24;23.30;69.00
33580;DHT22;19909;43.644;-79.438;2023-09-08T05:52:51;23.30;69.10
33580;DHT22;19909;43.644;-79.438;2023-09-08T05:55:17;23.30;69.10
33580;DHT22;19909;43.644;-79.438;2023-09-08T05:57:43;23.30;69.30
33580;DHT22;19909;43.644;-79.438;2023-09-08T06:00:10;23.30;69.10
33580;DHT22;19909;43.644;-79.438;2023-09-08T06:02:38;23.30;69.10
33580;DHT22;19909;43.644;-79.438;2023-09-08T06:05:04;23.30;69.10
33580;DHT22;19909;43.644;-79.438;2023-09-08T06:07:31;23.30;69.10
33580;DHT22;19909;43.644;-79.438;2023-09-08T06:09:57;23.20;69.20
33580;DHT22;19909;43.644;-79.438;2023-09-08T06:12:23;23.30;69.20
33580;DHT22;19909;43.644;-79.438;2023-09-08T06:14:49;23.30;69.30
33580;DHT22;19909;43.644;-79.438;2023-09-08T06:17:15;23.20;68.90
33580;DHT22;19909;43.644;-79.438;2023-09-08T06:19:41;23.20;69.20
33580;DHT22;19909;43.644;-79.438;2023-09-08T06:22:07;23.30;69.10
33580;DHT22;19909;43.644;-79.438;2023-09-08T06:24:33;23.20;68.90
33580;DHT22;19909;43.644;-79.438;2023-09-08T06:27:00;23.20;68.90
33580;DHT22;19909;43.644;-79.438;2023-09-08T06:29:26;23.20;69.00
33580;DHT22;19909;43.644;-79.438;2023-09-08T06:31:52;23.20;69.60
33580;DHT22;19909;43.644;-79.438;2023-09-08T06:34:18;23.20;68.90
33580;DHT22;19909;43.644;-79.438;2023-09-08T06:36:47;23.20;68.80
33580;DHT22;19909;43.644;-79.438;2023-09-08T06:39:13;23.20;68.90
33580;DHT22;19909;43.644;-79.438;2023-09-08T06:41:40;23.20;69.20
33580;DHT22;19909;43.644;-79.438;2023-09-08T06:44:06;23.20;69.40
33580;DHT22;19909;43.644;-79.438;2023-09-08T06:46:32;23.20;68.80
33580;DHT22;19909;43.644;-79.438;2023-09-08T06:48:58;23.20;69.10
33580;DHT22;19909;43.644;-79.438;2023-09-08T06:51:24;23.20;68.80
33580;DHT22;19909;43.644;-79.438;2023-09-08T06:53:57;23.20;68.70
33580;DHT22;19909;43.644;-79.438;2023-09-08T06:56:23;23.20;68.70
33580;DHT22;19909;43.644;-79.438;2023-09-08T06:58:49;23.20;68.50
33580;DHT22;19909;43.644;-79.438;2023-09-08T07:01:15;23.20;68.70
33580;DHT22;19909;43.644;-79.438;2023-09-08T07:03:41;23.20;68.60
33580;DHT22;19909;43.644;-79.438;2023-09-08T07:06:07;23.10;68.50
33580;DHT22;19909;43.644;-79.438;2023-09-08T07:08:34;23.10;68.30
33580;DHT22;19909;43.644;-79.438;2023-09-08T07:11:00;23.10;68.50
33580;DHT22;19909;43.644;-79.438;2023-09-08T07:13:26;23.10;68.60
33580;DHT22;19909;43.644;-79.438;2023-09-08T07:15:52;23.10;68.60
33580;DHT22;19909;43.644;-79.438;2023-09-08T07:18:18;23.10;68.50
33580;DHT22;19909;43.644;-79.438;2023-09-08T07:20:48;23.10;68.30
33580;DHT22;19909;43.644;-79.438;2023-09-08T07:23:17;23.10;68.40
33580;DHT22;19909;43.644;-79.438;2023-09-08T07:25:48;23.10;68.20
33580;DHT22;19909;43.644;-79.438;2023-09-08T07:28:15;23.10;68.10
33580;DHT22;19909;43.644;-79.438;2023-09-08T07:30:42;23.10;68.20
33580;DHT22;19909;43.644;-79.438;2023-09-08T07:33:12;23.10;68.30
33580;DHT22;19909;43.644;-79.438;2023-09-08T07:35:39;23.10;68.10
33580;DHT22;19909;43.644;-79.438;2023-09-08T07:38:05;23.10;68.20
33580;DHT22;19909;43.644;-79.438;2023-09-08T07:40:33;23.10;68.20
33580;DHT22;19909;43.644;-79.438;2023-09-08T07:42:59;23.10;68.60
33580;DHT22;19909;43.644;-79.438;2023-09-08T07:45:25;23.10;68.60
33580;DHT22;19909;43.644;-79.438;2023-09-08T07:47:51;23.00;68.30
33580;DHT22;19909;43.644;-79.438;2023-09-08T07:50:20;23.10;68.10
33580;DHT22;19909;43.644;-79.438;2023-09-08T07:52:48;23.10;68.10
33580;DHT22;19909;43.644;-79.438;2023-09-08T07:55:15;23.10;67.90
33580;DHT22;19909;43.644;-79.438;2023-09-08T07:57:43;23.10;67.70
33580;DHT22;19909;43.644;-79.438;2023-09-08T08:00:10;23.00;68.20
33580;DHT22;19909;43.644;-79.438;2023-09-08T08:02:37;23.00;68.20
33580;DHT22;19909;43.644;-79.438;2023-09-08T08:05:04;23.00;67.80
33580;DHT22;19909;43.644;-79.438;2023-09-08T08:07:30;23.00;67.90
33580;DHT22;19909;43.644;-79.438;2023-09-08T08:09:57;23.00;67.60
33580;DHT22;19909;43.644;-79.438;2023-09-08T08:12:23;23.00;68.00
33580;DHT22;19909;43.644;-79.438;2023-09-08T08:14:49;23.00;68.20
33580;DHT22;19909;43.644;-79.438;2023-09-08T08:17:15;23.00;67.80
33580;DHT22;19909;43.644;-79.438;2023-09-08T08:19:43;23.00;67.80
33580;DHT22;19909;43.644;-79.438;2023-09-08T08:22:09;23.00;67.90
33580;DHT22;19909;43.644;-79.438;2023-09-08T08:24:35;23.00;67.80
33580;DHT22;19909;43.644;-79.438;2023-09-08T08:27:02;23.00;67.40
33580;DHT22;19909;43.644;-79.438;2023-09-08T08:29:29;23.00;67.40
33580;DHT22;19909;43.644;-79.438;2023-09-08T08:31:55;23.00;67.40
33580;DHT22;19909;43.644;-79.438;2023-09-08T08:34:21;23.00;67.50
33580;DHT22;19909;43.644;-79.438;2023-09-08T08:36:48;23.00;67.30
33580;DHT22;19909;43.644;-79.438;2023-09-08T08:39:14;23.00;67.50
33580;DHT22;19909;43.644;-79.438;2023-09-08T08:41:43;23.00;67.40
33580;DHT22;19909;43.644;-79.438;2023-09-08T08:44:09;22.90;67.90
33580;DHT22;19909;43.644;-79.438;2023-09-08T08:46:39;23.00;67.50
33580;DHT22;19909;43.644;-79.438;2023-09-08T08:49:06;22.90;67.20
33580;DHT22;19909;43.644;-79.438;2023-09-08T08:51:34;22.90;67.00
33580;DHT22;19909;43.644;-79.438;2023-09-08T08:54:01;22.90;67.30
33580;DHT22;19909;43.644;-79.438;2023-09-08T08:56:31;22.90;66.90
33580;DHT22;19909;43.644;-79.438;2023-09-08T08:58:58;22.90;67.00
33580;DHT22;19909;43.644;-79.438;2023-09-08T09:01:26;22.90;66.90
33580;DHT22;19909;43.644;-79.438;2023-09-08T09:03:54;22.90;67.30
33580;DHT22;19909;43.644;-79.438;2023-09-08T09:06:21;22.90;67.10
33580;DHT22;19909;43.644;-79.438;2023-09-08T09:08:47;22.90;67.30
33580;DHT22;19909;43.644;-79.438;2023-09-08T09:11:14;22.80;67.60
33580;DHT22;19909;43.644;-79.438;2023-09-08T09:13:40;22.80;67.20
33580;DHT22;19909;43.644;-79.438;2023-09-08T09:16:06;22.90;67.40
33580;DHT22;19909;43.644;-79.438;2023-09-08T09:18:58;22.90;67.20
33580;DHT22;19909;43.644;-79.438;2023-09-08T09:21:41;22.80;66.60
33580;DHT22;19909;43.644;-79.438;2023-09-08T09:24:10;22.90;66.70
33580;DHT22;19909;43.644;-79.438;2023-09-08T09:26:39;22.80;66.50
33580;DHT22;19909;43.644;-79.438;2023-09-08T09:29:12;22.80;67.90
33580;DHT22;19909;43.644;-79.438;2023-09-08T09:32:02;22.80;66.80
33580;DHT22;19909;43.644;-79.438;2023-09-08T09:34:30;22.80;66.70
33580;DHT22;19909;43.644;-79.438;2023-09-08T09:36:56;22.80;66.40
33580;DHT22;19909;43.644;-79.438;2023-09-08T09:39:24;22.80;66.40
33580;DHT22;19909;43.644;-79.438;2023-09-08T09:41:55;22.70;66.70
33580;DHT22;19909;43.644;-79.438;2023-09-08T09:44:22;22.80;67.40
33580;DHT22;19909;43.644;-79.438;2023-09-08T09:46:51;22.80;66.90
33580;DHT22;19909;43.644;-79.438;2023-09-08T09:49:17;22.80;66.80
33580;DHT22;19909;43.644;-79.438;2023-09-08T09:51:46;22.80;66.20
33580;DHT22;19909;43.644;-79.438;2023-09-08T09:54:13;22.80;67.50
33580;DHT22;19909;43.644;-79.438;2023-09-08T09:56:40;22.80;66.60
33580;DHT22;19909;43.644;-79.438;2023-09-08T09:59:11;22.80;66.00
33580;DHT22;19909;43.644;-79.438;2023-09-08T10:01:41;22.70;66.60
33580;DHT22;19909;43.644;-79.438;2023-09-08T10:04:08;22.80;66.10
33580;DHT22;19909;43.644;-79.438;2023-09-08T10:06:36;22.70;66.10
33580;DHT22;19909;43.644;-79.438;2023-09-08T10:09:04;22.80;66.10
33580;DHT22;19909;43.644;-79.438;2023-09-08T10:11:50;22.70;66.30
33580;DHT22;19909;43.644;-79.438;2023-09-08T10:14:17;22.70;66.70
33580;DHT22;19909;43.644;-79.438;2023-09-08T10:16:45;22.70;66.50
33580;DHT22;19909;43.644;-79.438;2023-09-08T10:19:16;22.70;66.50
33580;DHT22;19909;43.644;-79.438;2023-09-08T10:21:45;22.70;67.00
33580;DHT22;19909;43.644;-79.438;2023-09-08T10:24:28;22.70;66.20
33580;DHT22;19909;43.644;-79.438;2023-09-08T10:29:31;22.70;65.90
33580;DHT22;19909;43.644;-79.438;2023-09-08T10:31:58;22.70;66.00
33580;DHT22;19909;43.644;-79.438;2023-09-08T10:34:25;22.70;65.80
33580;DHT22;19909;43.644;-79.438;2023-09-08T10:36:52;22.70;66.00
33580;DHT22;19909;43.644;-79.438;2023-09-08T10:39:30;22.60;65.80
33580;DHT22;19909;43.644;-79.438;2023-09-08T10:42:29;22.60;66.00
33580;DHT22;19909;43.644;-79.438;2023-09-08T10:45:00;22.70;66.50
33580;DHT22;19909;43.644;-79.438;2023-09-08T10:47:55;22.60;66.10
33580;DHT22;19909;43.644;-79.438;2023-09-08T10:50:27;22.60;65.90
33580;DHT22;19909;43.644;-79.438;2023-09-08T10:53:27;22.60;65.60
33580;DHT22;19909;43.644;-79.438;2023-09-08T10:55:53;22.60;65.70
33580;DHT22;19909;43.644;-79.438;2023-09-08T10:58:36;22.60;65.70
33580;DHT22;19909;43.644;-79.438;2023-09-08T11:01:04;22.60;65.40
33580;DHT22;19909;43.644;-79.438;2023-09-08T11:06:03;22.60;65.80
33580;DHT22;19909;43.644;-79.438;2023-09-08T11:08:30;22.60;65.40
33580;DHT22;19909;43.644;-79.438;2023-09-08T11:10:56;22.60;65.40
33580;DHT22;19909;43.644;-79.438;2023-09-08T11:13:23;22.60;65.80
33580;DHT22;19909;43.644;-79.438;2023-09-08T11:15:52;22.60;66.00
33580;DHT22;19909;43.644;-79.438;2023-09-08T11:18:28;22.60;65.70
33580;DHT22;19909;43.644;-79.438;2023-09-08T11:20:56;22.60;65.50
33580;DHT22;19909;43.644;-79.438;2023-09-08T11:23:22;22.60;66.10
33580;DHT22;19909;43.644;-79.438;2023-09-08T11:25:52;22.60;65.10
33580;DHT22;19909;43.644;-79.438;2023-09-08T11:28:22;22.60;65.30
33580;DHT22;19909;43.644;-79.438;2023-09-08T11:30:49;22.60;65.50
33580;DHT22;19909;43.644;-79.438;2023-09-08T11:33:17;22.60;65.50
33580;DHT22;19909;43.644;-79.438;2023-09-08T11:35:46;22.60;65.00
33580;DHT22;19909;43.644;-79.438;2023-09-08T11:38:13;22.60;65.10
33580;DHT22;19909;43.644;-79.438;2023-09-08T11:40:40;22.50;65.10
33580;DHT22;19909;43.644;-79.438;2023-09-08T11:43:06;22.50;65.70
33580;DHT22;19909;43.644;-79.438;2023-09-08T11:45:36;22.50;65.80
33580;DHT22;19909;43.644;-79.438;2023-09-08T11:48:06;22.60;65.80
33580;DHT22;19909;43.644;-79.438;2023-09-08T11:50:32;22.50;65.40
33580;DHT22;19909;43.644;-79.438;2023-09-08T11:52:58;22.50;66.10
33580;DHT22;19909;43.644;-79.438;2023-09-08T11:55:25;22.50;65.20
33580;DHT22;19909;43.644;-79.438;2023-09-08T11:57:53;22.50;65.30
33580;DHT22;19909;43.644;-79.438;2023-09-08T12:00:27;22.60;65.30
33580;DHT22;19909;43.644;-79.438;2023-09-08T12:02:54;22.50;64.80
33580;DHT22;19909;43.644;-79.438;2023-09-08T12:05:25;22.50;65.10
33580;DHT22;19909;43.644;-79.438;2023-09-08T12:07:53;22.50;65.20
33580;DHT22;19909;43.644;-79.438;2023-09-08T12:10:20;22.50;65.10
33580;DHT22;19909;43.644;-79.438;2023-09-08T12:12:50;22.50;65.20
33580;DHT22;19909;43.644;-79.438;2023-09-08T12:15:34;22.50;65.60
33580;DHT22;19909;43.644;-79.438;2023-09-08T12:18:03;22.50;65.30
33580;DHT22;19909;43.644;-79.438;2023-09-08T12:20:30;22.50;65.10
33580;DHT22;19909;43.644;-79.438;2023-09-08T12:23:04;22.50;65.10
33580;DHT22;19909;43.644;-79.438;2023-09-08T12:25:31;22.50;64.70
33580;DHT22;19909;43.644;-79.438;2023-09-08T12:27:58;22.50;64.90
33580;DHT22;19909;43.644;-79.438;2023-09-08T12:30:24;22.50;64.70
33580;DHT22;19909;43.644;-79.438;2023-09-08T12:32:57;22.50;64.80
33580;DHT22;19909;43.644;-79.438;2023-09-08T12:35:24;22.50;64.80
33580;DHT22;19909;43.644;-79.438;2023-09-08T12:38:02;22.50;64.80
33580;DHT22;19909;43.644;-79.438;2023-09-08T12:40:32;22.50;65.10
33580;DHT22;19909;43.644;-79.438;2023-09-08T12:42:58;22.50;64.80
33580;DHT22;19909;43.644;-79.438;2023-09-08T12:45:26;22.50;65.30
33580;DHT22;19909;43.644;-79.438;2023-09-08T12:47:52;22.50;65.10
33580;DHT22;19909;43.644;-79.438;2023-09-08T12:50:20;22.50;64.80
33580;DHT22;19909;43.644;-79.438;2023-09-08T12:52:47;22.50;64.60
33580;DHT22;19909;43.644;-79.438;2023-09-08T12:55:13;22.50;64.50
33580;DHT22;19909;43.644;-79.438;2023-09-08T12:57:39;22.50;64.90
33580;DHT22;19909;43.644;-79.438;2023-09-08T13:00:06;22.50;64.90
33580;DHT22;19909;43.644;-79.438;2023-09-08T13:02:33;22.50;64.80
33580;DHT22;19909;43.644;-79.438;2023-09-08T13:04:59;22.50;64.80
33580;DHT22;19909;43.644;-79.438;2023-09-08T13:07:26;22.50;64.90
33580;DHT22;19909;43.644;-79.438;2023-09-08T13:09:53;22.50;64.80
33580;DHT22;19909;43.644;-79.438;2023-09-08T13:12:20;22.40;65.90
33580;DHT22;19909;43.644;-79.438;2023-09-08T13:14:46;22.50;65.30
33580;DHT22;19909;43.644;-79.438;2023-09-08T13:17:12;22.50;65.50
33580;DHT22;19909;43.644;-79.438;2023-09-08T13:19:41;22.50;65.30
33580;DHT22;19909;43.644;-79.438;2023-09-08T13:22:08;22.50;64.90
33580;DHT22;19909;43.644;-79.438;2023-09-08T13:24:35;22.50;65.10
33580;DHT22;19909;43.644;-79.438;2023-09-08T13:27:02;22.50;64.80
33580;DHT22;19909;43.644;-79.438;2023-09-08T13:29:28;22.50;64.80
33580;DHT22;19909;43.644;-79.438;2023-09-08T13:31:55;22.50;64.50
33580;DHT22;19909;43.644;-79.438;2023-09-08T13:34:21;22.40;64.70
33580;DHT22;19909;43.644;-79.438;2023-09-08T13:36:48;22.50;64.80
33580;DHT22;19909;43.644;-79.438;2023-09-08T13:39:14;22.40;64.40
33580;DHT22;19909;43.644;-79.438;2023-09-08T13:41:58;22.40;64.90
33580;DHT22;19909;43.644;-79.438;2023-09-08T13:44:25;22.40;64.90
33580;DHT22;19909;43.644;-79.438;2023-09-08T13:46:52;22.40;65.20
33580;DHT22;19909;43.644;-79.438;2023-09-08T13:49:19;22.40;64.80
33580;DHT22;19909;43.644;-79.438;2023-09-08T13:51:46;22.40;64.30
33580;DHT22;19909;43.644;-79.438;2023-09-08T13:54:12;22.40;64.90
33580;DHT22;19909;43.644;-79.438;2023-09-08T13:56:40;22.40;64.30
33580;DHT22;19909;43.644;-79.438;2023-09-08T13:59:07;22.40;64.50
33580;DHT22;19909;43.644;-79.438;2023-09-08T14:01:37;22.40;65.10
33580;DHT22;19909;43.644;-79.438;2023-09-08T14:04:04;22.40;64.40
33580;DHT22;19909;43.644;-79.438;2023-09-08T14:06:32;22.40;64.30
33580;DHT22;19909;43.644;-79.438;2023-09-08T14:08:58;22.40;64.50
33580;DHT22;19909;43.644;-79.438;2023-09-08T14:11:24;22.40;64.70
33580;DHT22;19909;43.644;-79.438;2023-09-08T14:13:51;22.40;65.00
33580;DHT22;19909;43.644;-79.438;2023-09-08T14:16:18;22.40;64.80
33580;DHT22;19909;43.644;-79.438;2023-09-08T14:18:45;22.40;65.10
33580;DHT22;19909;43.644;-79.438;2023-09-08T14:21:11;22.40;64.50
33580;DHT22;19909;43.644;-79.438;2023-09-08T14:23:37;22.40;64.60
33580;DHT22;19909;43.644;-79.438;2023-09-08T14:26:04;22.40;65.10
33580;DHT22;19909;43.644;-79.438;2023-09-08T14:28:30;22.40;64.60
33580;DHT22;19909;43.644;-79.438;2023-09-08T14:30:58;22.40;64.80
33580;DHT22;19909;43.644;-79.438;2023-09-08T14:33:24;22.40;64.60
33580;DHT22;19909;43.644;-79.438;2023-09-08T14:35:51;22.40;64.60
33580;DHT22;19909;43.644;-79.438;2023-09-08T14:38:17;22.40;64.80
33580;DHT22;19909;43.644;-79.438;2023-09-08T14:40:44;22.40;64.50
33580;DHT22;19909;43.644;-79.438;2023-09-08T14:43:11;22.40;64.80
33580;DHT22;19909;43.644;-79.438;2023-09-08T14:45:37;22.40;64.70
33580;DHT22;19909;43.644;-79.438;2023-09-08T14:48:04;22.40;64.70
33580;DHT22;19909;43.644;-79.438;2023-09-08T14:50:30;22.40;64.50
33580;DHT22;19909;43.644;-79.438;2023-09-08T14:52:56;22.40;64.10
33580;DHT22;19909;43.644;-79.438;2023-09-08T14:55:24;22.40;64.40
33580;DHT22;19909;43.644;-79.438;2023-09-08T14:57:50;22.40;64.10
33580;DHT22;19909;43.644;-79.438;2023-09-08T15:00:16;22.40;64.20
33580;DHT22;19909;43.644;-79.438;2023-09-08T15:02:42;22.40;64.20
33580;DHT22;19909;43.644;-79.438;2023-09-08T15:05:08;22.40;64.40
33580;DHT22;19909;43.644;-79.438;2023-09-08T15:07:35;22.40;64.40
33580;DHT22;19909;43.644;-79.438;2023-09-08T15:10:01;22.40;64.80
33580;DHT22;19909;43.644;-79.438;2023-09-08T15:12:28;22.40;65.10
33580;DHT22;19909;43.644;-79.438;2023-09-08T15:14:54;22.40;64.70